Terminal Aerodrome Forecast
Issued by NWS

Home | Current Version | Previous Version | Text Only | Print | Product List | Glossary On
Versions: 1 2 3 4 5 6 7 8 9 10 11 12 13 14 15 16 17 18 19 20
000
FTUS44 KHGX 261137
TAFUTS
TAF
KUTS 261137Z 2612/2712 VRB02KT 2SM BR OVC002
      TEMPO 2612/2614 1/2SM FG VV002
     FM261400 VRB02KT P6SM VCSH SCT008 BKN030
     FM261700 14004KT P6SM VCTS SCT050CB
      TEMPO 2619/2623 VRB10G20KT 3SM TSRA BR BKN035CB
     FM270100 VRB04KT P6SM FEW035 BKN120
     FM271000 VRB03KT 6SM BR SCT003 SCT250=

USA.gov is the U.S. government's official web portal to all federal, state and local government web resources and services.